sensor_id;sensor_type;location;lat;lon;timestamp;P1;durP1;ratioP1;P2;durP2;ratioP2
28834;SDS011;15969;51.536;11.884;2022-10-13T00:01:23;14.87;;;8.33;;
28834;SDS011;15969;51.536;11.884;2022-10-13T00:03:49;13.10;;;8.50;;
28834;SDS011;15969;51.536;11.884;2022-10-13T00:06:16;13.83;;;7.83;;
28834;SDS011;15969;51.536;11.884;2022-10-13T00:08:44;11.70;;;8.40;;
28834;SDS011;15969;51.536;11.884;2022-10-13T00:11:21;15.17;;;8.47;;
28834;SDS011;15969;51.536;11.884;2022-10-13T00:13:49;11.17;;;7.60;;
28834;SDS011;15969;51.536;11.884;2022-10-13T00:16:16;13.10;;;8.37;;
28834;SDS011;15969;51.536;11.884;2022-10-13T00:18:45;10.77;;;8.37;;
28834;SDS011;15969;51.536;11.884;2022-10-13T00:21:12;9.93;;;7.80;;
28834;SDS011;15969;51.536;11.884;2022-10-13T00:23:41;10.57;;;7.80;;
28834;SDS011;15969;51.536;11.884;2022-10-13T00:26:09;17.20;;;8.90;;
28834;SDS011;15969;51.536;11.884;2022-10-13T00:28:37;11.90;;;7.37;;
28834;SDS011;15969;51.536;11.884;2022-10-13T00:31:03;11.50;;;7.77;;
28834;SDS011;15969;51.536;11.884;2022-10-13T00:33:49;12.33;;;7.93;;
28834;SDS011;15969;51.536;11.884;2022-10-13T00:36:15;14.23;;;8.43;;
28834;SDS011;15969;51.536;11.884;2022-10-13T00:38:41;11.03;;;8.23;;
28834;SDS011;15969;51.536;11.884;2022-10-13T00:41:07;13.73;;;9.10;;
28834;SDS011;15969;51.536;11.884;2022-10-13T00:46:32;14.50;;;9.10;;
28834;SDS011;15969;51.536;11.884;2022-10-13T00:49:01;11.30;;;9.10;;
28834;SDS011;15969;51.536;11.884;2022-10-13T00:51:33;13.90;;;9.20;;
28834;SDS011;15969;51.536;11.884;2022-10-13T00:54:05;11.07;;;8.33;;
28834;SDS011;15969;51.536;11.884;2022-10-13T00:56:33;9.50;;;8.50;;
28834;SDS011;15969;51.536;11.884;2022-10-13T00:59:01;11.73;;;9.10;;
28834;SDS011;15969;51.536;11.884;2022-10-13T01:01:32;10.60;;;9.30;;
28834;SDS011;15969;51.536;11.884;2022-10-13T01:03:59;12.53;;;9.67;;
28834;SDS011;15969;51.536;11.884;2022-10-13T01:06:25;12.10;;;9.00;;
28834;SDS011;15969;51.536;11.884;2022-10-13T01:08:51;13.90;;;9.30;;
28834;SDS011;15969;51.536;11.884;2022-10-13T01:11:34;13.47;;;9.03;;
28834;SDS011;15969;51.536;11.884;2022-10-13T01:14:29;11.83;;;8.73;;
28834;SDS011;15969;51.536;11.884;2022-10-13T01:20:10;14.50;;;9.03;;
28834;SDS011;15969;51.536;11.884;2022-10-13T01:32:59;12.03;;;8.70;;
28834;SDS011;15969;51.536;11.884;2022-10-13T01:41:42;14.37;;;8.90;;
28834;SDS011;15969;51.536;11.884;2022-10-13T01:44:20;12.17;;;9.77;;
28834;SDS011;15969;51.536;11.884;2022-10-13T01:47:00;12.90;;;9.37;;
28834;SDS011;15969;51.536;11.884;2022-10-13T01:49:33;12.90;;;10.17;;
28834;SDS011;15969;51.536;11.884;2022-10-13T01:52:07;17.27;;;9.47;;
28834;SDS011;15969;51.536;11.884;2022-10-13T01:54:38;10.97;;;9.33;;
28834;SDS011;15969;51.536;11.884;2022-10-13T01:57:03;11.33;;;9.50;;
28834;SDS011;15969;51.536;11.884;2022-10-13T01:59:50;11.57;;;9.70;;
28834;SDS011;15969;51.536;11.884;2022-10-13T02:02:18;12.27;;;9.77;;
28834;SDS011;15969;51.536;11.884;2022-10-13T02:04:55;12.23;;;9.60;;
28834;SDS011;15969;51.536;11.884;2022-10-13T02:07:36;11.97;;;9.70;;
28834;SDS011;15969;51.536;11.884;2022-10-13T02:10:19;9.60;;;8.63;;
28834;SDS011;15969;51.536;11.884;2022-10-13T02:13:02;10.37;;;9.33;;
28834;SDS011;15969;51.536;11.884;2022-10-13T02:15:40;12.30;;;9.13;;
28834;SDS011;15969;51.536;11.884;2022-10-13T02:18:12;11.03;;;9.20;;
28834;SDS011;15969;51.536;11.884;2022-10-13T02:20:41;11.97;;;9.47;;
28834;SDS011;15969;51.536;11.884;2022-10-13T02:23:10;12.37;;;9.13;;
28834;SDS011;15969;51.536;11.884;2022-10-13T02:25:38;10.17;;;8.60;;
28834;SDS011;15969;51.536;11.884;2022-10-13T02:28:05;14.70;;;9.63;;
28834;SDS011;15969;51.536;11.884;2022-10-13T02:30:32;10.87;;;9.30;;
28834;SDS011;15969;51.536;11.884;2022-10-13T02:32:58;11.57;;;9.40;;
28834;SDS011;15969;51.536;11.884;2022-10-13T02:35:25;16.60;;;10.13;;
28834;SDS011;15969;51.536;11.884;2022-10-13T02:37:51;12.73;;;9.63;;
28834;SDS011;15969;51.536;11.884;2022-10-13T02:40:17;13.07;;;10.33;;
28834;SDS011;15969;51.536;11.884;2022-10-13T02:42:43;15.53;;;10.43;;
28834;SDS011;15969;51.536;11.884;2022-10-13T02:45:08;13.63;;;9.77;;
28834;SDS011;15969;51.536;11.884;2022-10-13T02:47:34;15.57;;;10.77;;
28834;SDS011;15969;51.536;11.884;2022-10-13T02:50:00;13.53;;;9.53;;
28834;SDS011;15969;51.536;11.884;2022-10-13T02:52:26;11.07;;;9.60;;
28834;SDS011;15969;51.536;11.884;2022-10-13T02:54:52;11.30;;;9.40;;
28834;SDS011;15969;51.536;11.884;2022-10-13T02:57:17;13.10;;;9.80;;
28834;SDS011;15969;51.536;11.884;2022-10-13T02:59:43;12.67;;;9.37;;
28834;SDS011;15969;51.536;11.884;2022-10-13T03:02:09;12.67;;;9.50;;
28834;SDS011;15969;51.536;11.884;2022-10-13T03:04:35;11.60;;;9.67;;
28834;SDS011;15969;51.536;11.884;2022-10-13T03:07:00;14.63;;;9.00;;
28834;SDS011;15969;51.536;11.884;2022-10-13T03:09:26;12.73;;;8.70;;
28834;SDS011;15969;51.536;11.884;2022-10-13T03:11:52;12.53;;;9.50;;
28834;SDS011;15969;51.536;11.884;2022-10-13T03:14:18;14.27;;;9.07;;
28834;SDS011;15969;51.536;11.884;2022-10-13T03:16:44;11.97;;;10.43;;
28834;SDS011;15969;51.536;11.884;2022-10-13T03:19:09;11.80;;;9.23;;
28834;SDS011;15969;51.536;11.884;2022-10-13T03:21:36;16.50;;;9.50;;
28834;SDS011;15969;51.536;11.884;2022-10-13T03:24:03;14.90;;;9.33;;
28834;SDS011;15969;51.536;11.884;2022-10-13T03:26:32;12.07;;;9.80;;
28834;SDS011;15969;51.536;11.884;2022-10-13T03:28:58;13.37;;;9.50;;
28834;SDS011;15969;51.536;11.884;2022-10-13T03:31:24;15.30;;;10.57;;
28834;SDS011;15969;51.536;11.884;2022-10-13T03:33:50;13.73;;;10.73;;
28834;SDS011;15969;51.536;11.884;2022-10-13T03:36:16;17.57;;;10.60;;
28834;SDS011;15969;51.536;11.884;2022-10-13T03:38:42;12.70;;;10.30;;
28834;SDS011;15969;51.536;11.884;2022-10-13T03:41:12;17.33;;;10.37;;
28834;SDS011;15969;51.536;11.884;2022-10-13T03:43:42;18.67;;;11.17;;
28834;SDS011;15969;51.536;11.884;2022-10-13T03:46:09;14.90;;;11.60;;
28834;SDS011;15969;51.536;11.884;2022-10-13T03:48:38;17.57;;;11.80;;
28834;SDS011;15969;51.536;11.884;2022-10-13T03:51:08;14.30;;;11.57;;
28834;SDS011;15969;51.536;11.884;2022-10-13T03:53:36;15.30;;;10.90;;
28834;SDS011;15969;51.536;11.884;2022-10-13T03:56:02;14.17;;;11.30;;
28834;SDS011;15969;51.536;11.884;2022-10-13T03:58:29;13.57;;;11.33;;
28834;SDS011;15969;51.536;11.884;2022-10-13T04:00:56;14.23;;;10.50;;
28834;SDS011;15969;51.536;11.884;2022-10-13T04:03:26;12.13;;;9.77;;
28834;SDS011;15969;51.536;11.884;2022-10-13T04:05:52;11.80;;;10.33;;
28834;SDS011;15969;51.536;11.884;2022-10-13T04:08:17;15.03;;;9.93;;
28834;SDS011;15969;51.536;11.884;2022-10-13T04:10:43;15.57;;;9.87;;
28834;SDS011;15969;51.536;11.884;2022-10-13T04:13:09;15.07;;;10.27;;
28834;SDS011;15969;51.536;11.884;2022-10-13T04:15:38;13.30;;;10.23;;
28834;SDS011;15969;51.536;11.884;2022-10-13T04:18:04;12.27;;;10.33;;
28834;SDS011;15969;51.536;11.884;2022-10-13T04:20:38;16.80;;;10.80;;
28834;SDS011;15969;51.536;11.884;2022-10-13T04:23:04;12.70;;;10.30;;
28834;SDS011;15969;51.536;11.884;2022-10-13T04:25:33;15.67;;;10.70;;
28834;SDS011;15969;51.536;11.884;2022-10-13T04:28:03;14.37;;;10.93;;
28834;SDS011;15969;51.536;11.884;2022-10-13T04:30:31;13.20;;;10.37;;
28834;SDS011;15969;51.536;11.884;2022-10-13T04:32:58;13.43;;;10.20;;
28834;SDS011;15969;51.536;11.884;2022-10-13T04:35:24;13.30;;;10.07;;
28834;SDS011;15969;51.536;11.884;2022-10-13T04:37:50;15.83;;;11.23;;
28834;SDS011;15969;51.536;11.884;2022-10-13T04:40:16;11.00;;;9.60;;
28834;SDS011;15969;51.536;11.884;2022-10-13T04:42:42;15.77;;;10.40;;
28834;SDS011;15969;51.536;11.884;2022-10-13T04:45:08;14.50;;;10.10;;
28834;SDS011;15969;51.536;11.884;2022-10-13T04:47:34;15.27;;;11.20;;
28834;SDS011;15969;51.536;11.884;2022-10-13T04:50:01;13.30;;;10.00;;
28834;SDS011;15969;51.536;11.884;2022-10-13T04:52:26;16.70;;;11.50;;
28834;SDS011;15969;51.536;11.884;2022-10-13T04:54:52;16.10;;;10.93;;
28834;SDS011;15969;51.536;11.884;2022-10-13T04:57:18;15.17;;;11.10;;
28834;SDS011;15969;51.536;11.884;2022-10-13T04:59:43;12.80;;;10.67;;
28834;SDS011;15969;51.536;11.884;2022-10-13T05:02:09;19.40;;;11.90;;
28834;SDS011;15969;51.536;11.884;2022-10-13T05:04:35;12.83;;;11.27;;
28834;SDS011;15969;51.536;11.884;2022-10-13T05:07:01;22.60;;;11.33;;
28834;SDS011;15969;51.536;11.884;2022-10-13T05:09:26;15.17;;;11.07;;
28834;SDS011;15969;51.536;11.884;2022-10-13T05:11:52;12.37;;;10.80;;
28834;SDS011;15969;51.536;11.884;2022-10-13T05:14:19;11.73;;;9.83;;
28834;SDS011;15969;51.536;11.884;2022-10-13T05:16:46;12.40;;;10.87;;
28834;SDS011;15969;51.536;11.884;2022-10-13T05:19:11;11.57;;;10.30;;
28834;SDS011;15969;51.536;11.884;2022-10-13T05:21:37;13.77;;;10.20;;
28834;SDS011;15969;51.536;11.884;2022-10-13T05:24:03;12.87;;;10.17;;
28834;SDS011;15969;51.536;11.884;2022-10-13T05:26:30;16.17;;;10.63;;
28834;SDS011;15969;51.536;11.884;2022-10-13T05:29:00;15.23;;;10.60;;
28834;SDS011;15969;51.536;11.884;2022-10-13T05:31:27;14.17;;;11.53;;
28834;SDS011;15969;51.536;11.884;2022-10-13T05:33:54;14.00;;;10.27;;
28834;SDS011;15969;51.536;11.884;2022-10-13T05:36:28;11.97;;;9.97;;
28834;SDS011;15969;51.536;11.884;2022-10-13T05:39:00;13.83;;;9.70;;
28834;SDS011;15969;51.536;11.884;2022-10-13T05:41:30;16.53;;;11.30;;
28834;SDS011;15969;51.536;11.884;2022-10-13T05:43:57;12.50;;;10.53;;
28834;SDS011;15969;51.536;11.884;2022-10-13T05:46:30;17.50;;;10.97;;
28834;SDS011;15969;51.536;11.884;2022-10-13T05:48:56;15.77;;;10.80;;
28834;SDS011;15969;51.536;11.884;2022-10-13T05:51:25;15.10;;;10.67;;
28834;SDS011;15969;51.536;11.884;2022-10-13T05:53:58;15.17;;;11.13;;
28834;SDS011;15969;51.536;11.884;2022-10-13T05:56:30;18.07;;;11.80;;
28834;SDS011;15969;51.536;11.884;2022-10-13T05:59:05;12.77;;;10.60;;
28834;SDS011;15969;51.536;11.884;2022-10-13T06:01:35;13.57;;;11.10;;
28834;SDS011;15969;51.536;11.884;2022-10-13T06:04:03;15.27;;;11.03;;
28834;SDS011;15969;51.536;11.884;2022-10-13T06:06:37;17.53;;;11.10;;
28834;SDS011;15969;51.536;11.884;2022-10-13T06:09:04;13.23;;;11.20;;
28834;SDS011;15969;51.536;11.884;2022-10-13T06:11:29;13.00;;;10.87;;
28834;SDS011;15969;51.536;11.884;2022-10-13T06:13:55;16.43;;;11.73;;
28834;SDS011;15969;51.536;11.884;2022-10-13T06:16:21;16.07;;;11.67;;
28834;SDS011;15969;51.536;11.884;2022-10-13T06:18:46;16.03;;;11.70;;
28834;SDS011;15969;51.536;11.884;2022-10-13T06:21:12;13.60;;;11.63;;
28834;SDS011;15969;51.536;11.884;2022-10-13T06:23:38;12.87;;;11.50;;
28834;SDS011;15969;51.536;11.884;2022-10-13T06:26:05;17.63;;;12.60;;
28834;SDS011;15969;51.536;11.884;2022-10-13T06:28:31;14.80;;;12.00;;
28834;SDS011;15969;51.536;11.884;2022-10-13T06:30:57;14.77;;;11.57;;
28834;SDS011;15969;51.536;11.884;2022-10-13T06:33:23;14.53;;;11.90;;
28834;SDS011;15969;51.536;11.884;2022-10-13T06:35:49;21.70;;;12.43;;
28834;SDS011;15969;51.536;11.884;2022-10-13T06:38:16;18.80;;;12.93;;
28834;SDS011;15969;51.536;11.884;2022-10-13T06:40:42;16.30;;;12.20;;
28834;SDS011;15969;51.536;11.884;2022-10-13T06:43:08;18.43;;;12.40;;
28834;SDS011;15969;51.536;11.884;2022-10-13T06:45:34;16.27;;;13.30;;
28834;SDS011;15969;51.536;11.884;2022-10-13T06:48:00;15.17;;;13.03;;
28834;SDS011;15969;51.536;11.884;2022-10-13T06:50:25;18.97;;;12.60;;
28834;SDS011;15969;51.536;11.884;2022-10-13T06:52:51;18.90;;;13.13;;
28834;SDS011;15969;51.536;11.884;2022-10-13T06:55:19;24.50;;;13.83;;
28834;SDS011;15969;51.536;11.884;2022-10-13T06:57:45;18.60;;;13.30;;
28834;SDS011;15969;51.536;11.884;2022-10-13T07:00:10;21.30;;;13.43;;
28834;SDS011;15969;51.536;11.884;2022-10-13T07:02:36;22.13;;;13.10;;
28834;SDS011;15969;51.536;11.884;2022-10-13T07:05:02;20.33;;;14.03;;
28834;SDS011;15969;51.536;11.884;2022-10-13T07:07:28;24.47;;;13.57;;
28834;SDS011;15969;51.536;11.884;2022-10-13T07:09:54;18.13;;;13.20;;
28834;SDS011;15969;51.536;11.884;2022-10-13T07:12:19;20.40;;;13.43;;
28834;SDS011;15969;51.536;11.884;2022-10-13T07:14:46;23.50;;;14.83;;
28834;SDS011;15969;51.536;11.884;2022-10-13T07:17:12;19.23;;;13.77;;
28834;SDS011;15969;51.536;11.884;2022-10-13T07:19:38;16.67;;;14.37;;
28834;SDS011;15969;51.536;11.884;2022-10-13T07:22:03;25.90;;;14.67;;
28834;SDS011;15969;51.536;11.884;2022-10-13T07:24:29;17.87;;;14.87;;
28834;SDS011;15969;51.536;11.884;2022-10-13T07:26:55;22.33;;;14.83;;
28834;SDS011;15969;51.536;11.884;2022-10-13T07:29:21;25.27;;;16.33;;
28834;SDS011;15969;51.536;11.884;2022-10-13T07:31:46;21.83;;;15.47;;
28834;SDS011;15969;51.536;11.884;2022-10-13T07:34:13;22.70;;;16.37;;
28834;SDS011;15969;51.536;11.884;2022-10-13T07:36:40;23.07;;;16.53;;
28834;SDS011;15969;51.536;11.884;2022-10-13T07:39:06;24.17;;;15.47;;
28834;SDS011;15969;51.536;11.884;2022-10-13T07:41:33;24.80;;;16.33;;
28834;SDS011;15969;51.536;11.884;2022-10-13T07:44:00;26.10;;;16.10;;
28834;SDS011;15969;51.536;11.884;2022-10-13T07:46:26;26.73;;;17.63;;
28834;SDS011;15969;51.536;11.884;2022-10-13T07:48:52;23.03;;;17.27;;
28834;SDS011;15969;51.536;11.884;2022-10-13T07:51:18;27.33;;;17.17;;
28834;SDS011;15969;51.536;11.884;2022-10-13T07:53:45;26.60;;;18.40;;
28834;SDS011;15969;51.536;11.884;2022-10-13T07:56:11;22.67;;;16.17;;
28834;SDS011;15969;51.536;11.884;2022-10-13T07:58:40;25.70;;;17.03;;
28834;SDS011;15969;51.536;11.884;2022-10-13T08:01:08;20.83;;;16.23;;
28834;SDS011;15969;51.536;11.884;2022-10-13T08:03:35;24.07;;;15.77;;
28834;SDS011;15969;51.536;11.884;2022-10-13T08:06:01;27.97;;;17.77;;
28834;SDS011;15969;51.536;11.884;2022-10-13T08:08:29;22.13;;;16.43;;
28834;SDS011;15969;51.536;11.884;2022-10-13T08:10:55;20.33;;;16.37;;
28834;SDS011;15969;51.536;11.884;2022-10-13T08:13:29;26.33;;;17.67;;
28834;SDS011;15969;51.536;11.884;2022-10-13T08:15:58;23.07;;;16.97;;
28834;SDS011;15969;51.536;11.884;2022-10-13T08:18:25;26.43;;;17.40;;
28834;SDS011;15969;51.536;11.884;2022-10-13T08:20:51;25.47;;;17.87;;
28834;SDS011;15969;51.536;11.884;2022-10-13T08:23:17;24.77;;;17.60;;
28834;SDS011;15969;51.536;11.884;2022-10-13T08:25:42;24.27;;;17.80;;
28834;SDS011;15969;51.536;11.884;2022-10-13T08:28:19;25.93;;;18.23;;
28834;SDS011;15969;51.536;11.884;2022-10-13T08:30:48;21.17;;;16.77;;
28834;SDS011;15969;51.536;11.884;2022-10-13T08:33:15;25.47;;;18.57;;
28834;SDS011;15969;51.536;11.884;2022-10-13T08:35:41;26.10;;;19.53;;
28834;SDS011;15969;51.536;11.884;2022-10-13T08:38:07;25.20;;;19.23;;
28834;SDS011;15969;51.536;11.884;2022-10-13T08:40:33;23.90;;;19.07;;
28834;SDS011;15969;51.536;11.884;2022-10-13T08:42:59;26.00;;;19.80;;
28834;SDS011;15969;51.536;11.884;2022-10-13T08:45:31;22.30;;;18.53;;
28834;SDS011;15969;51.536;11.884;2022-10-13T08:47:58;26.13;;;19.50;;
28834;SDS011;15969;51.536;11.884;2022-10-13T08:50:36;24.43;;;20.33;;
28834;SDS011;15969;51.536;11.884;2022-10-13T08:53:13;27.03;;;20.43;;
28834;SDS011;15969;51.536;11.884;2022-10-13T08:56:06;24.40;;;19.70;;
28834;SDS011;15969;51.536;11.884;2022-10-13T08:58:43;22.93;;;19.83;;
28834;SDS011;15969;51.536;11.884;2022-10-13T09:03:41;25.43;;;19.50;;
28834;SDS011;15969;51.536;11.884;2022-10-13T09:06:24;26.93;;;18.90;;
28834;SDS011;15969;51.536;11.884;2022-10-13T09:09:02;26.97;;;19.13;;
28834;SDS011;15969;51.536;11.884;2022-10-13T09:11:32;25.90;;;19.53;;
28834;SDS011;15969;51.536;11.884;2022-10-13T09:14:06;23.97;;;18.17;;
28834;SDS011;15969;51.536;11.884;2022-10-13T09:16:35;25.40;;;19.90;;
28834;SDS011;15969;51.536;11.884;2022-10-13T09:21:49;22.53;;;17.63;;
28834;SDS011;15969;51.536;11.884;2022-10-13T09:24:38;24.77;;;19.60;;
28834;SDS011;15969;51.536;11.884;2022-10-13T09:27:04;23.30;;;19.00;;
28834;SDS011;15969;51.536;11.884;2022-10-13T09:29:37;29.67;;;21.13;;
28834;SDS011;15969;51.536;11.884;2022-10-13T09:32:12;20.90;;;17.87;;
28834;SDS011;15969;51.536;11.884;2022-10-13T09:34:44;26.27;;;19.33;;
28834;SDS011;15969;51.536;11.884;2022-10-13T09:37:20;22.93;;;17.63;;
28834;SDS011;15969;51.536;11.884;2022-10-13T09:39:59;24.57;;;19.60;;
28834;SDS011;15969;51.536;11.884;2022-10-13T09:42:36;21.67;;;19.03;;
28834;SDS011;15969;51.536;11.884;2022-10-13T09:45:16;26.37;;;18.93;;
28834;SDS011;15969;51.536;11.884;2022-10-13T09:48:05;28.30;;;18.70;;
28834;SDS011;15969;51.536;11.884;2022-10-13T09:50:46;30.37;;;18.33;;
28834;SDS011;15969;51.536;11.884;2022-10-13T09:56:05;28.07;;;18.17;;
28834;SDS011;15969;51.536;11.884;2022-10-13T10:01:45;22.50;;;17.33;;
28834;SDS011;15969;51.536;11.884;2022-10-13T10:04:15;22.03;;;17.50;;
28834;SDS011;15969;51.536;11.884;2022-10-13T10:06:48;23.73;;;17.37;;
28834;SDS011;15969;51.536;11.884;2022-10-13T10:12:01;21.50;;;16.57;;
28834;SDS011;15969;51.536;11.884;2022-10-13T10:14:32;23.93;;;16.60;;
28834;SDS011;15969;51.536;11.884;2022-10-13T10:17:16;21.63;;;16.27;;
28834;SDS011;15969;51.536;11.884;2022-10-13T10:20:11;20.27;;;15.43;;
28834;SDS011;15969;51.536;11.884;2022-10-13T10:22:48;18.40;;;14.00;;
28834;SDS011;15969;51.536;11.884;2022-10-13T10:25:37;21.00;;;14.20;;
28834;SDS011;15969;51.536;11.884;2022-10-13T10:28:42;14.80;;;11.83;;
28834;SDS011;15969;51.536;11.884;2022-10-13T10:31:21;21.80;;;14.43;;
28834;SDS011;15969;51.536;11.884;2022-10-13T10:37:05;19.23;;;14.47;;
28834;SDS011;15969;51.536;11.884;2022-10-13T10:46:15;18.63;;;13.83;;
28834;SDS011;15969;51.536;11.884;2022-10-13T10:48:50;19.67;;;14.23;;
28834;SDS011;15969;51.536;11.884;2022-10-13T10:51:22;16.63;;;13.33;;
28834;SDS011;15969;51.536;11.884;2022-10-13T10:56:46;15.77;;;12.60;;
28834;SDS011;15969;51.536;11.884;2022-10-13T11:02:45;18.27;;;12.80;;
28834;SDS011;15969;51.536;11.884;2022-10-13T11:08:46;18.57;;;12.67;;
28834;SDS011;15969;51.536;11.884;2022-10-13T11:19:30;16.57;;;13.83;;
28834;SDS011;15969;51.536;11.884;2022-10-13T11:32:46;16.80;;;11.97;;
28834;SDS011;15969;51.536;11.884;2022-10-13T11:35:20;13.97;;;11.60;;
28834;SDS011;15969;51.536;11.884;2022-10-13T11:37:57;17.37;;;11.43;;
28834;SDS011;15969;51.536;11.884;2022-10-13T11:43:40;13.53;;;10.13;;
28834;SDS011;15969;51.536;11.884;2022-10-13T11:54:40;8.03;;;6.27;;
28834;SDS011;15969;51.536;11.884;2022-10-13T11:57:16;10.57;;;7.07;;
28834;SDS011;15969;51.536;11.884;2022-10-13T11:59:48;14.63;;;7.50;;
28834;SDS011;15969;51.536;11.884;2022-10-13T12:02:19;10.20;;;6.20;;
28834;SDS011;15969;51.536;11.884;2022-10-13T12:07:32;12.10;;;6.07;;
28834;SDS011;15969;51.536;11.884;2022-10-13T12:10:02;10.67;;;6.60;;
28834;SDS011;15969;51.536;11.884;2022-10-13T12:12:31;9.00;;;7.13;;
28834;SDS011;15969;51.536;11.884;2022-10-13T12:14:57;7.33;;;6.10;;
28834;SDS011;15969;51.536;11.884;2022-10-13T12:19:59;9.60;;;5.73;;
28834;SDS011;15969;51.536;11.884;2022-10-13T12:22:48;7.30;;;5.93;;
28834;SDS011;15969;51.536;11.884;2022-10-13T12:25:16;24.37;;;8.00;;
28834;SDS011;15969;51.536;11.884;2022-10-13T12:27:46;11.23;;;6.20;;
28834;SDS011;15969;51.536;11.884;2022-10-13T12:30:30;10.03;;;6.73;;
28834;SDS011;15969;51.536;11.884;2022-10-13T12:33:02;11.37;;;6.53;;
28834;SDS011;15969;51.536;11.884;2022-10-13T12:35:48;13.33;;;6.70;;
28834;SDS011;15969;51.536;11.884;2022-10-13T12:38:16;10.77;;;6.60;;
28834;SDS011;15969;51.536;11.884;2022-10-13T12:40:47;7.63;;;5.53;;
28834;SDS011;15969;51.536;11.884;2022-10-13T12:43:16;10.07;;;6.20;;
28834;SDS011;15969;51.536;11.884;2022-10-13T12:45:46;9.17;;;6.20;;
28834;SDS011;15969;51.536;11.884;2022-10-13T12:48:32;9.97;;;6.20;;
28834;SDS011;15969;51.536;11.884;2022-10-13T12:51:17;9.33;;;5.93;;
28834;SDS011;15969;51.536;11.884;2022-10-13T12:53:48;7.90;;;5.43;;
28834;SDS011;15969;51.536;11.884;2022-10-13T12:58:54;7.77;;;4.93;;
28834;SDS011;15969;51.536;11.884;2022-10-13T13:01:24;10.40;;;5.53;;
28834;SDS011;15969;51.536;11.884;2022-10-13T13:04:14;8.87;;;5.20;;
28834;SDS011;15969;51.536;11.884;2022-10-13T13:07:01;11.73;;;5.63;;
28834;SDS011;15969;51.536;11.884;2022-10-13T13:09:30;10.00;;;4.70;;
28834;SDS011;15969;51.536;11.884;2022-10-13T13:12:03;6.43;;;4.53;;
28834;SDS011;15969;51.536;11.884;2022-10-13T13:14:36;7.83;;;4.83;;
28834;SDS011;15969;51.536;11.884;2022-10-13T13:17:20;9.60;;;4.80;;
28834;SDS011;15969;51.536;11.884;2022-10-13T13:19:54;9.37;;;5.47;;
28834;SDS011;15969;51.536;11.884;2022-10-13T13:22:21;11.83;;;5.37;;
28834;SDS011;15969;51.536;11.884;2022-10-13T13:24:48;10.33;;;5.93;;
28834;SDS011;15969;51.536;11.884;2022-10-13T13:29:42;9.67;;;6.17;;
28834;SDS011;15969;51.536;11.884;2022-10-13T13:32:15;6.13;;;4.80;;
28834;SDS011;15969;51.536;11.884;2022-10-13T13:34:43;9.70;;;5.80;;
28834;SDS011;15969;51.536;11.884;2022-10-13T13:37:56;9.60;;;5.50;;
28834;SDS011;15969;51.536;11.884;2022-10-13T13:40:23;10.73;;;5.63;;
28834;SDS011;15969;51.536;11.884;2022-10-13T13:42:51;7.80;;;5.00;;
28834;SDS011;15969;51.536;11.884;2022-10-13T13:45:18;7.10;;;4.77;;
28834;SDS011;15969;51.536;11.884;2022-10-13T13:47:46;8.60;;;4.80;;
28834;SDS011;15969;51.536;11.884;2022-10-13T13:50:14;7.53;;;3.77;;
28834;SDS011;15969;51.536;11.884;2022-10-13T13:52:43;7.10;;;4.07;;
28834;SDS011;15969;51.536;11.884;2022-10-13T13:55:09;8.13;;;4.20;;
28834;SDS011;15969;51.536;11.884;2022-10-13T13:57:34;7.20;;;4.20;;
28834;SDS011;15969;51.536;11.884;2022-10-13T14:00:00;11.20;;;4.00;;
28834;SDS011;15969;51.536;11.884;2022-10-13T14:02:26;5.73;;;4.63;;
28834;SDS011;15969;51.536;11.884;2022-10-13T14:04:52;8.83;;;4.93;;
28834;SDS011;15969;51.536;11.884;2022-10-13T14:07:17;13.33;;;6.20;;
28834;SDS011;15969;51.536;11.884;2022-10-13T14:09:43;10.00;;;6.23;;
28834;SDS011;15969;51.536;11.884;2022-10-13T14:12:09;7.77;;;5.40;;
28834;SDS011;15969;51.536;11.884;2022-10-13T14:14:35;8.27;;;6.40;;
28834;SDS011;15969;51.536;11.884;2022-10-13T14:17:01;9.80;;;6.30;;
28834;SDS011;15969;51.536;11.884;2022-10-13T14:19:28;9.27;;;5.43;;
28834;SDS011;15969;51.536;11.884;2022-10-13T14:21:55;8.40;;;5.87;;
28834;SDS011;15969;51.536;11.884;2022-10-13T14:24:21;13.87;;;6.20;;
28834;SDS011;15969;51.536;11.884;2022-10-13T14:26:46;7.77;;;6.17;;
28834;SDS011;15969;51.536;11.884;2022-10-13T14:29:12;9.87;;;6.57;;
28834;SDS011;15969;51.536;11.884;2022-10-13T14:31:38;6.70;;;5.70;;
28834;SDS011;15969;51.536;11.884;2022-10-13T14:34:04;8.37;;;6.23;;
28834;SDS011;15969;51.536;11.884;2022-10-13T14:36:30;11.60;;;6.30;;
28834;SDS011;15969;51.536;11.884;2022-10-13T14:38:56;8.57;;;6.13;;
28834;SDS011;15969;51.536;11.884;2022-10-13T14:41:21;9.03;;;5.77;;
28834;SDS011;15969;51.536;11.884;2022-10-13T14:43:50;8.50;;;5.50;;
28834;SDS011;15969;51.536;11.884;2022-10-13T14:46:18;10.17;;;6.30;;
28834;SDS011;15969;51.536;11.884;2022-10-13T14:48:44;7.73;;;5.57;;
28834;SDS011;15969;51.536;11.884;2022-10-13T14:51:09;8.73;;;5.37;;
28834;SDS011;15969;51.536;11.884;2022-10-13T14:53:37;9.23;;;6.00;;
28834;SDS011;15969;51.536;11.884;2022-10-13T14:56:18;7.77;;;5.80;;
28834;SDS011;15969;51.536;11.884;2022-10-13T14:58:50;9.03;;;5.37;;
28834;SDS011;15969;51.536;11.884;2022-10-13T15:01:19;8.27;;;5.47;;
28834;SDS011;15969;51.536;11.884;2022-10-13T15:03:45;7.80;;;5.17;;
28834;SDS011;15969;51.536;11.884;2022-10-13T15:06:15;6.50;;;5.83;;
28834;SDS011;15969;51.536;11.884;2022-10-13T15:08:42;11.73;;;6.10;;
28834;SDS011;15969;51.536;11.884;2022-10-13T15:11:09;10.23;;;6.07;;
28834;SDS011;15969;51.536;11.884;2022-10-13T15:13:36;12.73;;;6.03;;
28834;SDS011;15969;51.536;11.884;2022-10-13T15:16:02;14.50;;;6.30;;
28834;SDS011;15969;51.536;11.884;2022-10-13T15:18:29;13.43;;;6.97;;
28834;SDS011;15969;51.536;11.884;2022-10-13T15:20:56;10.97;;;6.53;;
28834;SDS011;15969;51.536;11.884;2022-10-13T15:23:23;9.17;;;6.30;;
28834;SDS011;15969;51.536;11.884;2022-10-13T15:25:53;9.70;;;6.63;;
28834;SDS011;15969;51.536;11.884;2022-10-13T15:28:24;10.60;;;6.00;;
28834;SDS011;15969;51.536;11.884;2022-10-13T15:30:52;8.80;;;6.50;;
28834;SDS011;15969;51.536;11.884;2022-10-13T15:33:19;9.70;;;6.30;;
28834;SDS011;15969;51.536;11.884;2022-10-13T15:35:48;10.70;;;6.40;;
28834;SDS011;15969;51.536;11.884;2022-10-13T15:38:15;8.23;;;5.90;;
28834;SDS011;15969;51.536;11.884;2022-10-13T15:40:42;8.57;;;5.80;;
28834;SDS011;15969;51.536;11.884;2022-10-13T15:43:07;7.87;;;6.27;;
28834;SDS011;15969;51.536;11.884;2022-10-13T15:45:33;9.57;;;5.50;;
28834;SDS011;15969;51.536;11.884;2022-10-13T15:47:59;13.70;;;5.63;;
28834;SDS011;15969;51.536;11.884;2022-10-13T15:50:25;6.63;;;5.97;;
28834;SDS011;15969;51.536;11.884;2022-10-13T15:52:51;10.17;;;5.10;;
28834;SDS011;15969;51.536;11.884;2022-10-13T15:55:17;9.23;;;5.20;;
28834;SDS011;15969;51.536;11.884;2022-10-13T15:57:43;6.77;;;4.30;;
28834;SDS011;15969;51.536;11.884;2022-10-13T16:00:10;10.53;;;4.43;;
28834;SDS011;15969;51.536;11.884;2022-10-13T16:02:38;5.70;;;4.20;;
28834;SDS011;15969;51.536;11.884;2022-10-13T16:05:06;8.90;;;4.50;;
28834;SDS011;15969;51.536;11.884;2022-10-13T16:07:33;8.80;;;4.30;;
28834;SDS011;15969;51.536;11.884;2022-10-13T16:09:59;7.47;;;4.50;;